createdAt,value
2018-12-18T00:00:03.194Z,10.79
2018-12-18T00:02:31.736Z,10.80
2018-12-18T00:05:04.375Z,10.81
2018-12-18T00:07:32.879Z,10.80
2018-12-18T00:10:01.434Z,10.77
2018-12-18T00:12:29.956Z,10.74
2018-12-18T00:15:10.751Z,10.76
2018-12-18T00:17:39.261Z,10.77
2018-12-18T00:20:07.796Z,10.78
2018-12-18T00:22:36.246Z,10.78
2018-12-18T00:25:05.937Z,10.79
2018-12-18T00:27:34.548Z,10.80
2018-12-18T00:30:03.057Z,10.78
2018-12-18T00:32:31.571Z,10.76
2018-12-18T00:35:00.022Z,10.75
2018-12-18T00:37:28.499Z,10.75
2018-12-18T00:39:56.977Z,10.73
2018-12-18T00:42:25.419Z,10.74
2018-12-18T00:44:53.873Z,10.77
2018-12-18T00:47:22.323Z,10.75
2018-12-18T00:49:50.857Z,10.78
2018-12-18T00:52:19.385Z,10.75
2018-12-18T00:54:47.895Z,10.73
2018-12-18T00:57:16.494Z,10.75
2018-12-18T00:59:45.029Z,10.72
2018-12-18T01:02:13.618Z,10.68
2018-12-18T01:04:42.113Z,10.67
2018-12-18T01:07:10.742Z,10.70
2018-12-18T01:09:39.197Z,10.73
2018-12-18T01:12:07.654Z,10.76
2018-12-18T01:14:36.109Z,10.77
2018-12-18T01:17:04.585Z,10.80
2018-12-18T01:19:33.064Z,10.80
2018-12-18T01:22:01.566Z,10.82
2018-12-18T01:24:30.086Z,10.80
2018-12-18T01:26:58.604Z,10.80
2018-12-18T01:29:27.225Z,10.79
2018-12-18T01:31:55.738Z,10.77
2018-12-18T01:34:24.218Z,10.69
2018-12-18T01:36:52.745Z,10.65
2018-12-18T01:39:21.226Z,10.60
2018-12-18T01:41:49.785Z,10.58
2018-12-18T01:44:18.282Z,10.58
2018-12-18T01:46:46.748Z,9.38
2018-12-18T01:49:15.283Z,10.48
2018-12-18T01:51:43.806Z,10.39
2018-12-18T01:54:12.258Z,10.31
2018-12-18T01:56:40.761Z,10.22
2018-12-18T01:59:09.237Z,10.16
2018-12-18T02:01:37.751Z,10.11
2018-12-18T02:04:06.401Z,10.06
2018-12-18T02:06:34.915Z,10.09
2018-12-18T02:09:04.042Z,10.10
2018-12-18T02:11:32.539Z,10.09
2018-12-18T02:14:01.029Z,10.09
2018-12-18T02:16:29.559Z,10.05
2018-12-18T02:18:57.986Z,10.00
2018-12-18T02:21:26.530Z,9.96
2018-12-18T02:23:55.076Z,9.88
2018-12-18T02:26:23.618Z,9.81
2018-12-18T02:28:52.103Z,9.73
2018-12-18T02:31:20.654Z,9.68
2018-12-18T02:33:49.105Z,9.62
2018-12-18T02:36:17.588Z,9.55
2018-12-18T02:38:46.057Z,9.50
2018-12-18T02:41:14.565Z,9.45
2018-12-18T02:43:43.155Z,9.38
2018-12-18T02:46:11.642Z,9.34
2018-12-18T02:48:40.155Z,9.23
2018-12-18T02:51:08.611Z,9.21
2018-12-18T02:53:37.070Z,9.18
2018-12-18T02:56:05.529Z,9.15
2018-12-18T02:58:34.029Z,9.16
2018-12-18T03:01:02.559Z,9.12
2018-12-18T03:03:30.999Z,9.09
2018-12-18T03:05:59.517Z,9.05
2018-12-18T03:08:28.011Z,9.07
2018-12-18T03:10:56.482Z,9.07
2018-12-18T03:13:25.047Z,9.09
2018-12-18T03:15:53.551Z,9.11
2018-12-18T03:18:22.043Z,9.19
2018-12-18T03:20:51.102Z,9.24
2018-12-18T03:23:19.623Z,9.31
2018-12-18T03:25:48.133Z,9.30
2018-12-18T03:28:16.750Z,9.34
2018-12-18T03:30:45.271Z,9.42
2018-12-18T03:33:13.820Z,9.46
2018-12-18T03:35:43.584Z,9.47
2018-12-18T03:38:12.202Z,9.44
2018-12-18T03:40:40.672Z,9.37
2018-12-18T03:43:09.213Z,9.32
2018-12-18T03:45:37.822Z,9.20
2018-12-18T03:48:06.436Z,9.12
2018-12-18T03:50:35.051Z,9.12
2018-12-18T03:53:03.551Z,9.03
2018-12-18T03:55:32.074Z,9.03
2018-12-18T03:58:00.680Z,9.03
2018-12-18T04:00:29.213Z,9.05
2018-12-18T04:02:57.808Z,9.03
2018-12-18T04:05:26.299Z,9.03
2018-12-18T04:07:54.770Z,9.04
2018-12-18T04:10:23.294Z,9.06
2018-12-18T04:12:51.786Z,9.02
2018-12-18T04:15:20.474Z,9.00
2018-12-18T04:17:48.931Z,9.00
2018-12-18T04:20:17.393Z,9.04
2018-12-18T04:22:45.824Z,9.01
2018-12-18T04:25:14.293Z,8.99
2018-12-18T04:27:42.724Z,8.97
2018-12-18T04:30:11.242Z,8.95
2018-12-18T04:32:40.516Z,8.90
2018-12-18T04:35:08.989Z,8.89
2018-12-18T04:37:37.583Z,8.90
2018-12-18T04:40:06.349Z,8.86
2018-12-18T04:42:34.853Z,8.81
2018-12-18T04:45:03.574Z,8.73
2018-12-18T04:47:32.243Z,8.74
2018-12-18T04:50:00.767Z,8.68
2018-12-18T04:52:29.282Z,8.72
2018-12-18T04:54:57.858Z,8.70
2018-12-18T04:57:26.345Z,8.65
2018-12-18T04:59:54.876Z,8.61
2018-12-18T05:02:23.361Z,8.64
2018-12-18T05:04:51.908Z,8.60
2018-12-18T05:07:20.495Z,8.57
2018-12-18T05:09:49.011Z,8.56
2018-12-18T05:12:17.502Z,8.56
2018-12-18T05:14:46.146Z,8.56
2018-12-18T05:17:14.744Z,8.53
2018-12-18T05:19:43.250Z,8.49
2018-12-18T05:22:11.799Z,8.44
2018-12-18T05:24:40.350Z,8.43
2018-12-18T05:27:09.014Z,8.43
2018-12-18T05:29:37.576Z,8.38
2018-12-18T05:32:06.041Z,8.40
2018-12-18T05:34:34.670Z,7.53
2018-12-18T05:37:03.200Z,8.39
2018-12-18T05:39:31.751Z,8.34
2018-12-18T05:42:00.248Z,8.29
2018-12-18T05:44:28.777Z,8.33
2018-12-18T05:46:57.251Z,8.28
2018-12-18T05:49:25.753Z,8.28
2018-12-18T05:51:54.215Z,8.29
2018-12-18T05:54:23.047Z,8.27
2018-12-18T05:56:51.556Z,8.28
2018-12-18T05:59:20.036Z,8.27
2018-12-18T06:01:48.656Z,8.29
2018-12-18T06:04:17.188Z,8.26
2018-12-18T06:06:45.718Z,8.28
2018-12-18T06:09:14.231Z,8.28
2018-12-18T06:11:42.840Z,8.30
2018-12-18T06:14:11.519Z,8.25
2018-12-18T06:16:40.080Z,8.24
2018-12-18T06:19:08.640Z,8.25
2018-12-18T06:21:37.197Z,8.25
2018-12-18T06:24:05.675Z,8.29
2018-12-18T06:26:34.161Z,8.26
2018-12-18T06:29:02.637Z,8.26
2018-12-18T06:31:31.152Z,8.26
2018-12-18T06:33:59.666Z,8.20
2018-12-18T06:36:28.139Z,8.20
2018-12-18T06:38:56.597Z,8.22
2018-12-18T06:41:25.049Z,7.52
2018-12-18T06:43:53.521Z,8.26
2018-12-18T06:46:22.087Z,7.91
2018-12-18T06:48:50.705Z,8.30
2018-12-18T06:51:19.286Z,8.23
2018-12-18T06:53:47.779Z,8.26
2018-12-18T06:56:16.250Z,8.25
2018-12-18T06:58:44.683Z,8.25
2018-12-18T07:01:13.189Z,8.22
2018-12-18T07:03:41.655Z,8.26
2018-12-18T07:06:10.101Z,8.23
2018-12-18T07:08:38.576Z,8.29
2018-12-18T07:11:07.089Z,8.29
2018-12-18T07:13:35.582Z,8.28
2018-12-18T07:16:04.112Z,8.31
2018-12-18T07:18:32.614Z,8.26
2018-12-18T07:21:01.016Z,8.26
2018-12-18T07:23:29.494Z,8.29
2018-12-18T07:25:57.968Z,8.30
2018-12-18T07:28:26.459Z,8.32
2018-12-18T07:30:55.129Z,8.29
2018-12-18T07:33:23.789Z,8.32
2018-12-18T07:35:52.209Z,8.32
2018-12-18T07:38:20.675Z,8.32
2018-12-18T07:40:49.126Z,8.34
2018-12-18T07:43:17.652Z,8.34
2018-12-18T07:45:46.237Z,8.32
2018-12-18T07:48:14.778Z,8.31
2018-12-18T07:50:43.467Z,8.38
2018-12-18T07:53:12.207Z,8.40
2018-12-18T07:55:40.708Z,8.45
2018-12-18T07:58:09.212Z,8.53
2018-12-18T08:00:37.773Z,8.57
2018-12-18T08:03:06.298Z,8.67
2018-12-18T08:05:34.788Z,8.72
2018-12-18T08:08:03.322Z,8.81
2018-12-18T08:10:31.750Z,8.86
2018-12-18T08:13:00.302Z,8.94
2018-12-18T08:15:28.815Z,9.03
2018-12-18T08:17:57.267Z,9.11
2018-12-18T08:20:25.758Z,9.23
2018-12-18T08:22:54.271Z,9.37
2018-12-18T08:25:23.396Z,9.57
2018-12-18T08:27:51.866Z,10.13
2018-12-18T08:30:20.335Z,10.97
2018-12-18T08:32:49.184Z,11.86
2018-12-18T08:35:17.634Z,12.45
2018-12-18T08:37:46.091Z,12.86
2018-12-18T08:40:14.632Z,13.35
2018-12-18T08:42:43.113Z,13.92
2018-12-18T08:45:11.595Z,14.56
2018-12-18T08:47:40.100Z,15.21
2018-12-18T08:50:09.494Z,15.91
2018-12-18T08:52:38.018Z,16.61
2018-12-18T08:55:07.158Z,17.16
2018-12-18T08:57:35.720Z,17.17
2018-12-18T09:00:04.488Z,17.30
2018-12-18T09:02:32.979Z,17.47
2018-12-18T09:05:01.525Z,17.99
2018-12-18T09:07:29.972Z,18.46
2018-12-18T09:09:58.446Z,19.14
2018-12-18T09:12:27.002Z,19.61
2018-12-18T09:14:57.476Z,20.00
2018-12-18T09:17:31.715Z,20.25
2018-12-18T09:20:00.232Z,20.43
2018-12-18T09:22:28.822Z,20.98
2018-12-18T09:24:57.266Z,21.09
2018-12-18T09:27:25.802Z,21.20
2018-12-18T09:29:54.298Z,20.56
2018-12-18T09:32:22.859Z,19.83
2018-12-18T09:34:51.428Z,19.36
2018-12-18T09:37:19.927Z,19.15
2018-12-18T09:39:48.434Z,19.59
2018-12-18T09:42:22.235Z,20.21
2018-12-18T09:44:50.689Z,20.86
2018-12-18T09:47:19.240Z,21.77
2018-12-18T09:49:47.751Z,22.58
2018-12-18T09:52:16.310Z,23.14
2018-12-18T09:54:44.775Z,23.46
2018-12-18T09:57:18.403Z,23.48
2018-12-18T09:59:46.912Z,23.04
2018-12-18T10:02:15.415Z,22.66
2018-12-18T10:04:44.033Z,23.11
2018-12-18T10:07:12.504Z,23.36
2018-12-18T10:09:41.045Z,24.00
2018-12-18T10:12:09.590Z,24.70
2018-12-18T10:14:38.361Z,25.43
2018-12-18T10:17:06.997Z,25.53
2018-12-18T10:19:35.635Z,25.69
2018-12-18T10:22:04.095Z,25.61
2018-12-18T10:24:32.646Z,25.70
2018-12-18T10:27:01.091Z,25.57
2018-12-18T10:29:29.990Z,25.51
2018-12-18T10:31:58.568Z,25.61
2018-12-18T10:34:27.081Z,25.92
2018-12-18T10:36:55.613Z,26.37
2018-12-18T10:39:24.103Z,26.89
2018-12-18T10:41:52.673Z,25.25
2018-12-18T10:44:21.287Z,26.65
2018-12-18T10:46:49.874Z,26.52
2018-12-18T10:49:18.383Z,26.53
2018-12-18T10:51:46.858Z,26.48
2018-12-18T10:54:15.390Z,26.33
2018-12-18T10:56:43.895Z,26.28
2018-12-18T10:59:12.349Z,26.23
2018-12-18T11:01:46.110Z,25.82
2018-12-18T11:04:14.565Z,25.04
2018-12-18T11:06:43.082Z,24.61
2018-12-18T11:09:11.555Z,24.42
2018-12-18T11:11:40.039Z,24.09
2018-12-18T11:14:08.539Z,23.48
2018-12-18T11:16:37.525Z,23.08
2018-12-18T11:19:06.451Z,22.46
2018-12-18T11:21:34.995Z,21.98
2018-12-18T11:24:03.569Z,21.61
2018-12-18T11:26:32.062Z,21.31
2018-12-18T11:29:00.567Z,20.84
2018-12-18T11:31:29.070Z,20.64
2018-12-18T11:33:57.544Z,20.62
2018-12-18T11:36:26.049Z,20.49
2018-12-18T11:38:54.548Z,20.13
2018-12-18T11:41:23.257Z,19.77
2018-12-18T11:43:51.718Z,19.67
2018-12-18T11:46:20.194Z,19.65
2018-12-18T11:48:48.713Z,19.73
2018-12-18T11:51:17.278Z,19.92
2018-12-18T11:53:45.754Z,19.79
2018-12-18T11:56:14.182Z,19.48
2018-12-18T11:58:42.717Z,19.08
2018-12-18T12:01:11.281Z,19.10
2018-12-18T12:03:39.780Z,18.98
2018-12-18T12:06:08.221Z,19.02
2018-12-18T12:08:36.671Z,19.06
2018-12-18T12:11:05.159Z,18.99
2018-12-18T12:13:33.616Z,18.98
2018-12-18T12:16:02.196Z,19.09
2018-12-18T12:21:26.519Z,19.45
2018-12-18T12:23:55.198Z,19.56
2018-12-18T12:26:29.059Z,19.63
2018-12-18T12:28:57.598Z,19.47
2018-12-18T12:31:26.216Z,19.20
2018-12-18T12:33:54.741Z,19.14
2018-12-18T12:36:29.415Z,18.88
2018-12-18T12:38:53.894Z,18.88
2018-12-18T12:41:22.481Z,18.53
2018-12-18T12:43:50.989Z,18.17
2018-12-18T12:46:19.541Z,18.20
2018-12-18T12:48:54.961Z,18.46
2018-12-18T12:51:24.135Z,18.63
2018-12-18T12:53:53.428Z,18.50
2018-12-18T12:56:22.351Z,18.16
2018-12-18T12:58:50.818Z,17.75
2018-12-18T13:01:19.679Z,17.47
2018-12-18T13:03:48.317Z,17.12
2018-12-18T13:06:17.179Z,16.64
2018-12-18T13:08:46.245Z,16.30
2018-12-18T13:11:14.928Z,16.00
2018-12-18T13:13:43.935Z,15.64
2018-12-18T13:16:12.486Z,15.45
2018-12-18T13:18:41.043Z,15.16
2018-12-18T13:21:09.570Z,14.92
2018-12-18T13:23:38.103Z,14.69
2018-12-18T13:26:06.682Z,14.19
2018-12-18T13:28:35.323Z,14.34
2018-12-18T13:31:04.011Z,14.20
2018-12-18T13:33:33.788Z,14.00
2018-12-18T13:36:02.480Z,13.83
2018-12-18T13:38:31.044Z,13.78
2018-12-18T13:40:59.571Z,13.69
2018-12-18T13:43:28.159Z,13.60
2018-12-18T13:45:59.344Z,13.59
2018-12-18T13:48:28.004Z,13.49
2018-12-18T13:50:57.110Z,13.34
2018-12-18T13:53:25.636Z,13.23
2018-12-18T13:55:54.703Z,13.09
2018-12-18T13:58:23.416Z,12.90
2018-12-18T14:00:51.965Z,12.70
2018-12-18T14:03:20.677Z,12.55
2018-12-18T14:05:49.190Z,12.35
2018-12-18T14:08:17.942Z,12.30
2018-12-18T14:10:46.605Z,12.17
2018-12-18T14:13:15.555Z,12.05
2018-12-18T14:15:44.334Z,11.90
2018-12-18T14:18:12.910Z,11.79
2018-12-18T14:20:41.516Z,11.66
2018-12-18T14:23:11.305Z,11.48
2018-12-18T14:25:39.899Z,11.35
2018-12-18T14:28:08.404Z,11.30
2018-12-18T14:30:37.079Z,11.10
2018-12-18T14:33:05.636Z,11.03
2018-12-18T14:35:34.170Z,10.88
2018-12-18T14:38:02.919Z,10.76
2018-12-18T14:40:31.607Z,10.81
2018-12-18T14:43:00.386Z,10.75
2018-12-18T14:45:28.891Z,10.61
2018-12-18T14:47:58.141Z,10.52
2018-12-18T14:50:26.696Z,10.56
2018-12-18T14:52:55.280Z,10.45
2018-12-18T14:55:23.793Z,10.38
2018-12-18T14:57:52.372Z,10.34
2018-12-18T15:00:21.021Z,10.29
2018-12-18T15:02:49.692Z,10.24
2018-12-18T15:05:18.287Z,10.16
2018-12-18T15:07:46.783Z,10.19
2018-12-18T15:10:15.562Z,10.05
2018-12-18T15:12:50.723Z,10.11
2018-12-18T15:15:19.340Z,10.07
2018-12-18T15:17:47.859Z,9.97
2018-12-18T15:20:16.448Z,10.03
2018-12-18T15:22:45.022Z,9.97
2018-12-18T15:25:13.557Z,9.96
2018-12-18T15:27:42.086Z,9.95
2018-12-18T15:30:11.055Z,9.90
2018-12-18T15:32:39.821Z,9.93
2018-12-18T15:35:08.389Z,9.85
2018-12-18T15:37:37.212Z,9.74
2018-12-18T15:40:05.946Z,9.76
2018-12-18T15:42:34.438Z,9.78
2018-12-18T15:45:02.966Z,9.80
2018-12-18T15:47:31.485Z,9.76
2018-12-18T15:49:59.996Z,9.74
2018-12-18T15:52:28.667Z,9.67
2018-12-18T15:54:57.201Z,9.59
2018-12-18T15:57:25.682Z,9.67
2018-12-18T15:59:54.181Z,9.60
2018-12-18T16:02:24.346Z,9.63
2018-12-18T16:04:53.031Z,9.67
2018-12-18T16:07:21.482Z,9.57
2018-12-18T16:09:50.034Z,9.59
2018-12-18T16:12:18.566Z,9.57
2018-12-18T16:14:47.186Z,9.54
2018-12-18T16:17:15.753Z,9.53
2018-12-18T16:19:44.375Z,9.52
2018-12-18T16:22:12.849Z,9.48
2018-12-18T16:24:41.472Z,9.50
2018-12-18T16:27:10.031Z,9.44
2018-12-18T16:29:39.269Z,9.41
2018-12-18T16:32:07.895Z,9.45
2018-12-18T16:34:36.401Z,9.42
2018-12-18T16:37:05.246Z,9.38
2018-12-18T16:39:33.837Z,9.31
2018-12-18T16:42:02.415Z,9.30
2018-12-18T16:44:30.994Z,9.25
2018-12-18T16:46:59.526Z,9.34
2018-12-18T16:49:28.013Z,9.29
2018-12-18T16:51:56.539Z,9.27
2018-12-18T16:54:25.339Z,9.28
2018-12-18T16:56:54.055Z,9.26
2018-12-18T16:59:22.533Z,9.23
2018-12-18T17:01:51.167Z,9.28
2018-12-18T17:04:19.744Z,9.20
2018-12-18T17:06:48.373Z,9.22
2018-12-18T17:09:16.963Z,9.11
2018-12-18T17:11:45.527Z,9.21
2018-12-18T17:14:14.290Z,9.22
2018-12-18T17:16:42.939Z,9.23
2018-12-18T17:19:11.457Z,9.18
2018-12-18T17:21:40.062Z,9.16
2018-12-18T17:24:08.731Z,9.14
2018-12-18T17:26:37.468Z,9.14
2018-12-18T17:29:06.951Z,9.16
2018-12-18T17:31:35.661Z,9.14
2018-12-18T17:34:04.201Z,9.14
2018-12-18T17:36:32.752Z,9.21
2018-12-18T17:39:01.246Z,9.22
2018-12-18T17:41:29.757Z,9.22
2018-12-18T17:43:58.377Z,9.20
2018-12-18T17:46:27.316Z,9.21
2018-12-18T17:49:06.292Z,9.15
2018-12-18T17:51:37.931Z,9.28
2018-12-18T17:59:34.766Z,9.22
2018-12-18T18:02:03.422Z,9.23
2018-12-18T18:04:32.023Z,9.30
2018-12-18T18:07:00.543Z,9.27
2018-12-18T18:09:28.965Z,9.29
2018-12-18T18:11:57.796Z,9.24
2018-12-18T18:14:26.434Z,9.12
2018-12-18T18:16:55.292Z,9.14
2018-12-18T18:19:36.521Z,9.19
2018-12-18T18:22:22.402Z,9.20
2018-12-18T18:27:58.515Z,9.17
2018-12-18T18:45:35.116Z,9.08
2018-12-18T18:54:23.147Z,9.05
2018-12-18T19:03:16.952Z,9.06
2018-12-18T19:17:59.197Z,9.09
2018-12-18T19:32:47.872Z,9.14
2018-12-18T23:54:52.932Z,9.99
